createdAt,value
2018-06-03T00:00:16.906Z,18.36
2018-06-03T00:02:45.048Z,18.36
2018-06-03T00:05:13.196Z,18.34
2018-06-03T00:07:44.096Z,18.29
2018-06-03T00:10:12.240Z,18.15
2018-06-03T00:12:40.391Z,17.93
2018-06-03T00:15:09.625Z,17.81
2018-06-03T00:17:37.795Z,17.82
2018-06-03T00:20:05.960Z,17.86
2018-06-03T00:22:34.104Z,17.86
2018-06-03T00:25:02.295Z,17.79
2018-06-03T00:27:30.473Z,17.73
2018-06-03T00:29:58.668Z,17.76
2018-06-03T00:32:26.830Z,17.79
2018-06-03T00:34:55.173Z,17.78
2018-06-03T00:37:23.364Z,17.76
2018-06-03T00:40:00.909Z,17.75
2018-06-03T00:42:29.049Z,17.69
2018-06-03T00:44:57.247Z,17.63
2018-06-03T00:47:25.427Z,17.60
2018-06-03T00:49:53.589Z,17.56
2018-06-03T00:52:21.754Z,17.56
2018-06-03T00:54:49.921Z,17.57
2018-06-03T00:57:21.911Z,17.56
2018-06-03T00:59:50.059Z,17.57
2018-06-03T01:02:18.228Z,17.57
2018-06-03T01:04:46.428Z,17.57
2018-06-03T01:07:44.964Z,17.56
2018-06-03T01:10:13.129Z,17.54
2018-06-03T01:12:41.303Z,17.52
2018-06-03T01:15:09.441Z,17.51
2018-06-03T01:17:37.599Z,17.50
2018-06-03T01:20:05.766Z,17.45
2018-06-03T01:22:33.921Z,17.39
2018-06-03T01:25:02.122Z,17.33
2018-06-03T01:27:30.306Z,17.28
2018-06-03T01:32:34.147Z,17.17
2018-06-03T01:35:02.319Z,17.12
2018-06-03T01:37:34.257Z,17.07
2018-06-03T01:40:02.431Z,17.00
2018-06-03T01:42:37.247Z,16.97
2018-06-03T01:45:05.408Z,16.97
2018-06-03T01:47:35.391Z,16.99
2018-06-03T01:50:03.572Z,16.97
2018-06-03T01:52:31.723Z,16.96
2018-06-03T01:55:00.041Z,16.99
2018-06-03T01:57:29.963Z,17.02
2018-06-03T01:59:58.145Z,17.04
2018-06-03T02:02:26.289Z,17.04
2018-06-03T02:04:54.476Z,17.03
2018-06-03T02:07:22.615Z,17.00
2018-06-03T02:09:50.802Z,17.00
2018-06-03T02:12:18.976Z,16.96
2018-06-03T02:14:49.812Z,16.74
2018-06-03T02:17:17.959Z,16.61
2018-06-03T02:19:46.144Z,16.58
2018-06-03T02:22:18.069Z,16.58
2018-06-03T02:24:46.286Z,16.56
2018-06-03T02:27:14.476Z,16.54
2018-06-03T02:29:42.624Z,16.49
2018-06-03T02:32:13.734Z,16.50
2018-06-03T02:34:41.894Z,16.52
2018-06-03T02:37:10.046Z,16.53
2018-06-03T02:39:38.552Z,16.55
2018-06-03T02:42:06.706Z,16.57
2018-06-03T02:44:34.878Z,16.57
2018-06-03T02:47:03.027Z,16.56
2018-06-03T02:49:31.162Z,16.54
2018-06-03T02:51:59.841Z,16.53
2018-06-03T02:54:29.128Z,16.53
2018-06-03T02:56:57.284Z,16.54
2018-06-03T02:59:25.506Z,16.49
2018-06-03T03:01:53.659Z,16.46
2018-06-03T03:04:21.812Z,16.36
2018-06-03T03:06:49.981Z,16.35
2018-06-03T03:09:18.160Z,16.35
2018-06-03T03:11:46.737Z,16.36
2018-06-03T03:14:14.914Z,16.33
2018-06-03T03:16:43.067Z,16.32
2018-06-03T03:19:11.270Z,16.28
2018-06-03T03:21:39.462Z,16.25
2018-06-03T03:24:09.627Z,16.26
2018-06-03T03:26:37.797Z,16.29
2018-06-03T03:29:05.949Z,16.32
2018-06-03T03:31:34.130Z,16.35
2018-06-03T03:34:02.272Z,16.39
2018-06-03T03:36:30.929Z,16.39
2018-06-03T03:38:59.092Z,16.42
2018-06-03T03:41:36.858Z,16.41
2018-06-03T03:44:05.003Z,16.40
2018-06-03T03:46:33.186Z,16.49
2018-06-03T03:49:01.350Z,16.52
2018-06-03T03:51:29.502Z,16.44
2018-06-03T03:53:57.660Z,16.43
2018-06-03T03:56:26.604Z,16.43
2018-06-03T03:58:54.799Z,16.46
2018-06-03T04:01:29.576Z,16.46
2018-06-03T04:03:57.772Z,16.47
2018-06-03T04:06:25.918Z,16.51
2018-06-03T04:08:54.072Z,16.55
2018-06-03T04:11:22.226Z,16.59
2018-06-03T04:13:50.468Z,16.65
2018-06-03T04:16:18.651Z,16.70
2018-06-03T04:18:46.830Z,16.69
2018-06-03T04:21:15.039Z,16.70
2018-06-03T04:23:43.184Z,16.76
2018-06-03T04:26:11.359Z,16.81
2018-06-03T04:28:39.550Z,16.83
2018-06-03T04:31:07.733Z,16.84
2018-06-03T04:33:35.920Z,16.80
2018-06-03T04:36:04.068Z,16.82
2018-06-03T04:38:32.232Z,16.84
2018-06-03T04:41:00.376Z,16.86
2018-06-03T04:43:28.570Z,16.88
2018-06-03T04:45:56.719Z,16.88
2018-06-03T04:48:34.889Z,16.88
2018-06-03T04:51:09.372Z,16.89
2018-06-03T04:53:37.542Z,16.90
2018-06-03T04:56:05.715Z,16.93
2018-06-03T04:58:33.916Z,16.97
2018-06-03T05:01:02.191Z,17.04
2018-06-03T05:03:30.339Z,17.12
2018-06-03T05:05:58.505Z,17.22
2018-06-03T05:08:26.650Z,17.31
2018-06-03T05:10:54.826Z,17.39
2018-06-03T05:13:23.084Z,17.47
2018-06-03T05:15:51.242Z,17.56
2018-06-03T05:18:19.392Z,17.63
2018-06-03T05:20:47.538Z,17.70
2018-06-03T05:23:16.441Z,17.77
2018-06-03T05:25:44.599Z,17.81
2018-06-03T05:28:12.772Z,17.86
2018-06-03T05:30:40.911Z,17.87
2018-06-03T05:33:09.579Z,17.92
2018-06-03T05:35:40.206Z,17.95
2018-06-03T05:38:08.373Z,18.01
2018-06-03T05:40:36.542Z,18.06
2018-06-03T05:43:04.696Z,18.15
2018-06-03T05:45:32.887Z,18.21
2018-06-03T05:48:01.051Z,18.29
2018-06-03T05:50:29.214Z,18.33
2018-06-03T05:52:59.062Z,18.39
2018-06-03T05:55:27.302Z,18.46
2018-06-03T05:57:56.851Z,18.53
2018-06-03T06:00:28.385Z,18.56
2018-06-03T06:02:56.575Z,18.60
2018-06-03T06:05:24.757Z,18.68
2018-06-03T06:07:59.768Z,18.75
2018-06-03T06:10:28.025Z,18.83
2018-06-03T06:12:56.176Z,18.93
2018-06-03T06:15:24.340Z,19.02
2018-06-03T06:17:52.571Z,19.09
2018-06-03T06:20:21.160Z,19.08
2018-06-03T06:22:49.366Z,19.14
2018-06-03T06:25:24.933Z,19.20
2018-06-03T06:27:53.087Z,19.25
2018-06-03T06:30:21.254Z,19.37
2018-06-03T06:32:50.293Z,19.48
2018-06-03T06:35:18.496Z,19.55
2018-06-03T06:37:46.745Z,19.61
2018-06-03T06:40:14.933Z,19.64
2018-06-03T06:42:43.089Z,19.72
2018-06-03T06:48:04.940Z,19.87
2018-06-03T06:50:33.245Z,19.92
2018-06-03T06:53:01.407Z,19.92
2018-06-03T06:55:29.554Z,19.96
2018-06-03T06:57:57.745Z,20.07
2018-06-03T07:00:25.899Z,20.15
2018-06-03T07:02:54.077Z,20.25
2018-06-03T07:05:29.057Z,20.29
2018-06-03T07:07:57.204Z,20.37
2018-06-03T07:10:28.436Z,20.46
2018-06-03T07:12:56.603Z,20.53
2018-06-03T07:15:28.186Z,20.56
2018-06-03T07:17:56.324Z,20.66
2018-06-03T07:20:24.466Z,20.81
2018-06-03T07:22:52.695Z,20.84
2018-06-03T07:25:27.543Z,20.86
2018-06-03T07:27:55.730Z,20.91
2018-06-03T07:30:23.900Z,20.96
2018-06-03T07:32:52.053Z,20.97
2018-06-03T07:35:20.209Z,21.02
2018-06-03T07:37:48.363Z,21.10
2018-06-03T07:40:16.553Z,21.23
2018-06-03T07:42:44.709Z,21.35
2018-06-03T07:45:12.876Z,21.47
2018-06-03T07:47:41.029Z,21.55
2018-06-03T07:50:12.977Z,21.61
2018-06-03T07:52:41.143Z,21.65
2018-06-03T07:55:09.308Z,21.74
2018-06-03T07:57:37.493Z,21.82
2018-06-03T08:00:05.673Z,21.92
2018-06-03T08:02:34.071Z,21.99
2018-06-03T08:05:02.261Z,22.03
2018-06-03T08:07:30.474Z,22.12
2018-06-03T08:09:58.636Z,22.21
2018-06-03T08:12:26.803Z,22.19
2018-06-03T08:14:54.987Z,22.30
2018-06-03T08:17:23.130Z,22.39
2018-06-03T08:19:51.276Z,22.47
2018-06-03T08:22:19.502Z,22.53
2018-06-03T08:24:48.912Z,22.54
2018-06-03T08:27:17.064Z,22.62
2018-06-03T08:29:45.693Z,22.72
2018-06-03T08:32:15.309Z,22.78
2018-06-03T08:37:26.263Z,22.96
2018-06-03T08:39:54.435Z,23.07
2018-06-03T08:42:22.623Z,23.11
2018-06-03T08:44:50.871Z,23.15
2018-06-03T08:47:19.049Z,23.28
2018-06-03T08:49:47.248Z,23.42
2018-06-03T08:52:15.432Z,23.56
2018-06-03T08:54:43.614Z,23.60
2018-06-03T08:57:11.768Z,23.63
2018-06-03T08:59:46.215Z,23.58
2018-06-03T09:02:14.946Z,23.54
2018-06-03T09:04:43.179Z,23.54
2018-06-03T09:07:11.338Z,23.58
2018-06-03T09:09:39.487Z,23.58
2018-06-03T09:12:07.660Z,23.66
2018-06-03T09:14:35.836Z,23.80
2018-06-03T09:17:04.889Z,23.83
2018-06-03T09:19:33.433Z,23.87
2018-06-03T09:22:01.594Z,23.98
2018-06-03T09:24:29.767Z,23.98
2018-06-03T09:26:57.928Z,24.02
2018-06-03T09:29:26.092Z,24.15
2018-06-03T09:31:54.220Z,24.33
2018-06-03T09:34:22.400Z,24.42
2018-06-03T09:36:50.568Z,24.52
2018-06-03T09:39:18.759Z,24.57
2018-06-03T09:41:46.967Z,24.61
2018-06-03T09:44:15.971Z,24.61
2018-06-03T09:46:44.129Z,24.60
2018-06-03T09:49:12.285Z,24.60
2018-06-03T09:51:40.444Z,24.65
2018-06-03T09:54:16.347Z,24.71
2018-06-03T09:56:44.546Z,24.76
2018-06-03T09:59:12.681Z,24.94
2018-06-03T10:01:40.888Z,25.07
2018-06-03T10:04:09.056Z,25.15
2018-06-03T10:06:37.229Z,25.35
2018-06-03T10:09:05.423Z,25.32
2018-06-03T10:11:33.615Z,25.32
2018-06-03T10:14:03.410Z,25.24
2018-06-03T10:16:31.560Z,25.18
2018-06-03T10:18:59.736Z,25.23
2018-06-03T10:21:27.895Z,25.23
2018-06-03T10:23:56.050Z,25.20
2018-06-03T10:26:24.207Z,25.36
2018-06-03T10:28:52.370Z,25.56
2018-06-03T10:31:20.537Z,25.77
2018-06-03T10:33:48.683Z,25.95
2018-06-03T10:36:16.872Z,25.98
2018-06-03T10:38:45.025Z,26.04
2018-06-03T10:41:13.206Z,26.23
2018-06-03T10:43:41.362Z,26.33
2018-06-03T10:46:09.549Z,26.30
2018-06-03T10:48:37.731Z,26.36
2018-06-03T10:51:05.947Z,26.35
2018-06-03T10:53:34.129Z,26.44
2018-06-03T10:56:02.300Z,26.60
2018-06-03T10:58:30.456Z,26.72
2018-06-03T11:00:58.596Z,26.79
2018-06-03T11:03:26.788Z,26.93
2018-06-03T11:05:54.980Z,27.08
2018-06-03T11:08:23.195Z,27.15
2018-06-03T11:10:51.385Z,27.12
2018-06-03T11:13:19.595Z,27.05
2018-06-03T11:15:47.770Z,27.12
2018-06-03T11:18:18.504Z,27.30
2018-06-03T11:20:46.659Z,27.33
2018-06-03T11:23:14.839Z,27.37
2018-06-03T11:25:43.023Z,27.25
2018-06-03T11:28:11.176Z,27.22
2018-06-03T11:30:39.351Z,27.28
2018-06-03T11:33:07.584Z,27.30
2018-06-03T11:35:36.320Z,27.14
2018-06-03T11:38:04.553Z,26.84
2018-06-03T11:40:32.729Z,26.86
2018-06-03T11:43:00.887Z,26.97
2018-06-03T11:45:29.076Z,27.01
2018-06-03T11:47:57.224Z,27.08
2018-06-03T11:50:25.407Z,27.11
2018-06-03T11:52:53.576Z,27.18
2018-06-03T11:55:23.450Z,27.24
2018-06-03T11:57:52.429Z,27.40
2018-06-03T12:00:20.590Z,27.55
2018-06-03T12:02:51.780Z,27.60
2018-06-03T12:05:19.940Z,27.71
2018-06-03T12:07:48.091Z,27.70
2018-06-03T12:10:19.615Z,27.78
2018-06-03T12:12:47.763Z,27.91
2018-06-03T12:15:15.920Z,28.24
2018-06-03T12:17:44.150Z,28.49
2018-06-03T12:20:15.692Z,28.63
2018-06-03T12:22:43.858Z,28.74
2018-06-03T12:25:18.381Z,28.71
2018-06-03T12:27:46.567Z,28.70
2018-06-03T12:30:22.852Z,28.67
2018-06-03T12:32:51.029Z,28.55
2018-06-03T12:35:19.209Z,28.51
2018-06-03T12:37:47.356Z,28.31
2018-06-03T12:40:15.530Z,27.96
2018-06-03T12:42:43.705Z,27.71
2018-06-03T12:45:12.030Z,27.74
2018-06-03T12:47:40.212Z,27.64
2018-06-03T12:50:08.388Z,27.64
2018-06-03T12:52:37.196Z,27.85
2018-06-03T12:55:10.059Z,27.84
2018-06-03T12:57:38.226Z,27.80
2018-06-03T13:00:07.271Z,27.98
2018-06-03T13:02:35.461Z,28.24
2018-06-03T13:05:03.628Z,28.30
2018-06-03T13:07:31.810Z,28.51
2018-06-03T13:09:59.964Z,28.54
2018-06-03T13:12:28.177Z,28.48
2018-06-03T13:14:56.347Z,28.48
2018-06-03T13:17:24.532Z,28.64
2018-06-03T13:19:52.707Z,28.72
2018-06-03T13:22:20.899Z,28.71
2018-06-03T13:24:49.056Z,28.84
2018-06-03T13:27:17.214Z,28.89
2018-06-03T13:29:46.939Z,29.06
2018-06-03T13:32:15.108Z,29.17
2018-06-03T13:34:44.190Z,29.37
2018-06-03T13:37:12.373Z,29.42
2018-06-03T13:42:31.951Z,29.34
2018-06-03T13:45:00.415Z,28.94
2018-06-03T13:47:28.607Z,28.58
2018-06-03T13:49:56.765Z,28.23
2018-06-03T13:52:31.013Z,28.51
2018-06-03T13:54:59.724Z,29.03
2018-06-03T13:57:27.920Z,29.68
2018-06-03T13:59:56.072Z,30.26
2018-06-03T14:02:24.256Z,30.60
2018-06-03T14:04:52.451Z,31.12
2018-06-03T14:07:58.143Z,31.50
2018-06-03T14:10:27.524Z,31.72
2018-06-03T14:12:56.814Z,31.89
2018-06-03T14:15:26.127Z,32.26
2018-06-03T14:17:55.336Z,32.12
2018-06-03T14:20:24.933Z,30.80
2018-06-03T14:22:54.292Z,29.96
2018-06-03T14:25:23.628Z,29.83
2018-06-03T14:27:52.894Z,30.55
2018-06-03T14:30:22.327Z,31.33
2018-06-03T14:32:51.799Z,31.96
2018-06-03T14:35:21.516Z,32.36
2018-06-03T14:37:52.069Z,32.65
2018-06-03T14:40:22.223Z,32.90
2018-06-03T14:42:51.537Z,33.38
2018-06-03T14:45:20.822Z,33.55
2018-06-03T14:47:50.026Z,33.43
2018-06-03T14:50:19.259Z,33.57
2018-06-03T14:52:48.566Z,33.51
2018-06-03T14:55:17.916Z,33.57
2018-06-03T14:57:47.346Z,33.68
2018-06-03T15:00:16.613Z,34.00
2018-06-03T15:02:46.015Z,34.14
2018-06-03T15:05:15.394Z,34.40
2018-06-03T15:07:44.664Z,34.74
2018-06-03T15:10:20.215Z,34.77
2018-06-03T15:12:49.571Z,34.45
2018-06-03T15:15:18.790Z,34.35
2018-06-03T15:17:48.053Z,33.86
2018-06-03T15:20:18.396Z,33.59
2018-06-03T15:22:54.876Z,33.70
2018-06-03T15:25:24.384Z,33.84
2018-06-03T15:27:53.746Z,33.28
2018-06-03T15:30:22.987Z,33.65
2018-06-03T15:32:52.225Z,34.06
2018-06-03T15:35:21.540Z,34.24
2018-06-03T15:37:50.886Z,34.41
2018-06-03T15:40:20.214Z,34.14
2018-06-03T15:42:49.653Z,33.98
2018-06-03T15:45:19.000Z,33.61
2018-06-03T15:47:48.362Z,33.43
2018-06-03T15:50:27.159Z,33.24
2018-06-03T15:53:05.070Z,32.67
2018-06-03T15:55:34.345Z,32.30
2018-06-03T15:58:03.557Z,31.72
2018-06-03T16:00:32.893Z,31.56
2018-06-03T16:03:02.359Z,31.28
2018-06-03T16:05:32.820Z,30.66
2018-06-03T16:08:02.180Z,30.60
2018-06-03T16:10:31.503Z,30.12
2018-06-03T16:13:00.808Z,29.92
2018-06-03T16:15:29.995Z,29.78
2018-06-03T16:17:59.201Z,29.58
2018-06-03T16:20:28.461Z,29.60
2018-06-03T16:23:01.542Z,29.42
2018-06-03T16:25:30.848Z,29.05
2018-06-03T16:28:02.046Z,28.82
2018-06-03T16:30:31.406Z,28.65
2018-06-03T16:33:00.698Z,28.45
2018-06-03T16:35:29.936Z,28.25
2018-06-03T16:37:59.186Z,28.18
2018-06-03T16:40:28.595Z,28.15
2018-06-03T16:42:57.993Z,28.07
2018-06-03T16:45:27.330Z,27.90
2018-06-03T16:47:57.208Z,27.77
2018-06-03T16:50:27.263Z,27.71
2018-06-03T16:52:56.667Z,27.72
2018-06-03T16:55:25.917Z,27.70
2018-06-03T16:57:55.425Z,27.61
2018-06-03T17:00:25.110Z,27.55
2018-06-03T17:02:54.609Z,27.46
2018-06-03T17:05:33.087Z,27.40
2018-06-03T17:08:04.709Z,27.34
2018-06-03T17:10:34.040Z,27.30
2018-06-03T17:13:03.367Z,27.21
2018-06-03T17:15:32.707Z,27.13
2018-06-03T17:18:02.504Z,27.07
2018-06-03T17:20:34.199Z,26.98
2018-06-03T17:23:03.695Z,26.86
2018-06-03T17:25:33.577Z,26.62
2018-06-03T17:28:03.046Z,26.48
2018-06-03T17:30:33.134Z,26.40
2018-06-03T17:33:02.574Z,26.38
2018-06-03T17:35:32.138Z,26.28
2018-06-03T17:38:01.374Z,26.22
2018-06-03T17:40:30.763Z,26.12
2018-06-03T17:43:00.129Z,25.89
2018-06-03T17:45:29.525Z,25.84
2018-06-03T17:47:59.138Z,25.86
2018-06-03T17:50:32.412Z,25.83
2018-06-03T17:53:02.473Z,25.81
2018-06-03T17:55:31.758Z,25.79
2018-06-03T17:58:01.432Z,25.77
2018-06-03T18:00:38.418Z,25.76
2018-06-03T18:03:08.006Z,25.75
2018-06-03T18:05:38.064Z,25.72
2018-06-03T18:08:09.545Z,25.67
2018-06-03T18:10:42.731Z,25.62
2018-06-03T18:13:12.462Z,25.58
2018-06-03T18:15:41.893Z,25.53
2018-06-03T18:18:11.328Z,25.48
2018-06-03T18:20:41.403Z,25.43
2018-06-03T18:23:10.954Z,25.37
2018-06-03T18:25:45.081Z,25.33
2018-06-03T18:28:28.931Z,25.28
2018-06-03T18:30:59.670Z,25.20
2018-06-03T18:33:29.715Z,25.11
2018-06-03T18:36:00.123Z,25.05
2018-06-03T18:38:29.886Z,24.98
2018-06-03T18:40:59.713Z,24.92
2018-06-03T18:43:29.903Z,24.86
2018-06-03T18:45:59.756Z,24.83
2018-06-03T18:48:29.929Z,24.78
2018-06-03T18:51:00.140Z,24.72
2018-06-03T18:53:29.968Z,24.66
2018-06-03T18:56:00.235Z,24.60
2018-06-03T18:58:30.134Z,24.53
2018-06-03T19:01:02.441Z,24.48
2018-06-03T19:03:31.675Z,24.42
2018-06-03T19:06:04.922Z,24.36
2018-06-03T19:08:34.236Z,24.32
2018-06-03T19:11:04.219Z,24.24
2018-06-03T19:13:33.614Z,24.16
2018-06-03T19:16:03.077Z,24.09
2018-06-03T19:18:32.881Z,24.02
2018-06-03T19:21:02.316Z,23.92
2018-06-03T19:23:31.666Z,23.84
2018-06-03T19:26:00.963Z,23.76
2018-06-03T19:28:30.445Z,23.69
2018-06-03T19:31:00.913Z,23.60
2018-06-03T19:33:30.681Z,23.54
2018-06-03T19:36:00.955Z,23.45
2018-06-03T19:38:30.700Z,23.37
2018-06-03T19:41:00.693Z,23.26
2018-06-03T19:43:32.487Z,23.16
2018-06-03T19:46:01.951Z,23.08
2018-06-03T19:48:31.130Z,22.98
2018-06-03T19:51:00.364Z,22.91
2018-06-03T19:53:30.621Z,22.86
2018-06-03T19:55:59.782Z,22.82
2018-06-03T19:58:29.294Z,22.78
2018-06-03T20:00:59.805Z,22.73
2018-06-03T20:03:28.958Z,22.67
2018-06-03T20:05:58.228Z,22.63
2018-06-03T20:08:30.774Z,22.60
2018-06-03T20:10:59.989Z,22.54
2018-06-03T20:13:29.676Z,22.51
2018-06-03T20:16:00.256Z,22.45
2018-06-03T20:18:29.540Z,22.37
2018-06-03T20:20:58.797Z,22.28
2018-06-03T20:23:27.960Z,22.20
2018-06-03T20:25:57.267Z,22.14
2018-06-03T20:28:26.461Z,22.05
2018-06-03T20:30:55.626Z,21.96
2018-06-03T20:33:24.766Z,21.85
2018-06-03T20:35:54.051Z,21.67
2018-06-03T20:38:23.351Z,21.49
2018-06-03T20:40:52.586Z,21.36
2018-06-03T20:43:21.720Z,21.28
2018-06-03T20:45:50.968Z,21.24
2018-06-03T20:48:20.261Z,21.18
2018-06-03T20:50:49.444Z,21.13
2018-06-03T20:53:18.679Z,21.11
2018-06-03T20:55:47.851Z,21.08
2018-06-03T20:58:17.062Z,21.05
2018-06-03T21:00:46.364Z,21.00
2018-06-03T21:03:15.515Z,20.99
2018-06-03T21:05:44.586Z,21.00
2018-06-03T21:08:13.868Z,20.99
2018-06-03T21:10:43.034Z,20.97
2018-06-03T21:13:12.170Z,20.93
2018-06-03T21:15:41.462Z,20.86
2018-06-03T21:18:10.667Z,20.81
2018-06-03T21:20:40.343Z,20.75
2018-06-03T21:23:09.544Z,20.70
2018-06-03T21:25:38.632Z,20.62
2018-06-03T21:28:07.713Z,20.57
2018-06-03T21:30:36.826Z,20.55
2018-06-03T21:33:06.602Z,20.52
2018-06-03T21:35:35.734Z,20.45
2018-06-03T21:38:04.858Z,20.38
2018-06-03T21:40:33.969Z,20.36
2018-06-03T21:43:03.096Z,20.30
2018-06-03T21:45:32.263Z,20.21
2018-06-03T21:48:01.741Z,20.19
2018-06-03T21:50:31.535Z,20.11
2018-06-03T21:53:00.641Z,20.00
2018-06-03T21:55:29.849Z,19.97
2018-06-03T21:58:02.495Z,19.91
2018-06-03T22:00:31.541Z,19.83
2018-06-03T22:03:00.647Z,19.78
2018-06-03T22:05:35.311Z,19.73
2018-06-03T22:08:04.399Z,19.69
2018-06-03T22:10:33.618Z,19.64
2018-06-03T22:13:02.713Z,19.56
2018-06-03T22:15:31.871Z,19.49
2018-06-03T22:18:00.970Z,19.44
2018-06-03T22:20:30.221Z,19.41
2018-06-03T22:22:59.455Z,19.39
2018-06-03T22:25:28.498Z,19.43
2018-06-03T22:28:03.361Z,19.43
2018-06-03T22:30:32.451Z,19.42
2018-06-03T22:33:01.579Z,19.46
2018-06-03T22:35:30.657Z,19.45
2018-06-03T22:38:00.429Z,19.46
2018-06-03T22:40:29.547Z,19.47
2018-06-03T22:42:58.697Z,19.46
2018-06-03T22:45:27.816Z,19.40
2018-06-03T22:47:59.235Z,19.29
2018-06-03T22:50:30.152Z,19.22
2018-06-03T22:52:59.355Z,19.17
2018-06-03T22:55:28.496Z,19.08
2018-06-03T22:57:57.533Z,19.04
2018-06-03T23:00:31.575Z,19.02
2018-06-03T23:03:05.900Z,19.02
2018-06-03T23:05:36.291Z,19.00
2018-06-03T23:08:10.427Z,19.02
2018-06-03T23:10:39.607Z,19.04
2018-06-03T23:13:08.749Z,18.97
2018-06-03T23:15:37.879Z,18.89
2018-06-03T23:18:07.050Z,18.82
2018-06-03T23:20:36.143Z,18.75
2018-06-03T23:23:05.347Z,18.69
2018-06-03T23:25:34.639Z,18.71
2018-06-03T23:28:03.878Z,18.70
2018-06-03T23:30:32.995Z,18.70
2018-06-03T23:33:02.136Z,18.69
2018-06-03T23:35:31.565Z,18.66
2018-06-03T23:38:00.743Z,18.66
2018-06-03T23:40:29.883Z,18.66
2018-06-03T23:42:58.999Z,18.63
2018-06-03T23:45:28.170Z,18.61
2018-06-03T23:47:57.347Z,18.58
2018-06-03T23:50:26.493Z,18.55
2018-06-03T23:52:59.273Z,18.50
2018-06-03T23:55:28.418Z,18.48
2018-06-03T23:58:09.096Z,18.47
